Time;durP1;ratioP1;P1;durP2;ratioP2;P2;SDS_P1;SDS_P2;PMS_P1;PMS_P2;Temp;Humidity;BMP_temperature;BMP_pressure;BME280_temperature;BME280_humidity;BME280_pressure;Samples;Min_cycle;Max_cycle;Signal;HPM_P1;HPM_P2
2021/07/07 00:01:16;;;;;;;16.05;14.55;;;19.10;99.90;;;;;;6036119;23;20317;-86
2021/07/07 00:03:42;;;;;;;16.92;15.32;;;19.10;99.90;;;;;;6037515;23;19999;-86
2021/07/07 00:06:08;;;;;;;18.30;16.52;;;19.10;99.90;;;;;;6037160;23;20011;-86
2021/07/07 00:08:34;;;;;;;17.88;16.15;;;19.00;99.90;;;;;;6036103;23;20003;-87
2021/07/07 00:11:01;;;;;;;18.23;16.45;;;19.00;99.90;;;;;;6037099;23;20010;-86
2021/07/07 00:13:26;;;;;;;16.70;14.93;;;18.90;99.90;;;;;;6036971;23;20322;-86
2021/07/07 00:15:52;;;;;;;16.58;14.85;;;18.90;99.90;;;;;;6036345;23;20070;-86
2021/07/07 00:18:18;;;;;;;15.60;13.95;;;18.90;99.90;;;;;;6037148;23;20037;-85
2021/07/07 00:20:56;;;;;;;16.00;14.63;;;18.90;99.90;;;;;;6036705;23;20435;-85
2021/07/07 00:23:27;;;;;;;14.98;13.57;;;18.90;99.90;;;;;;6036983;23;20026;-86
2021/07/07 00:25:53;;;;;;;15.52;14.20;;;18.80;99.90;;;;;;6036136;23;20007;-85
2021/07/07 00:28:20;;;;;;;14.85;13.55;;;18.90;99.90;;;;;;6037493;23;20004;-86
2021/07/07 00:30:50;;;;;;;17.92;16.13;;;18.90;99.90;;;;;;6037034;23;20006;-85
2021/07/07 00:33:17;;;;;;;21.10;17.17;;;18.90;99.90;;;;;;6036950;23;20417;-86
2021/07/07 00:35:44;;;;;;;18.80;17.02;;;18.90;99.90;;;;;;6036626;23;20003;-86
2021/07/07 00:38:12;;;;;;;17.25;15.70;;;18.80;99.90;;;;;;6037369;23;20337;-86
2021/07/07 00:40:38;;;;;;;17.77;16.17;;;18.80;99.90;;;;;;6037632;23;20467;-86
2021/07/07 00:43:04;;;;;;;18.23;16.45;;;18.80;99.90;;;;;;6011811;23;20003;-86
2021/07/07 00:45:30;;;;;;;18.77;16.98;;;18.80;99.90;;;;;;6036672;23;20096;-86
2021/07/07 00:47:56;;;;;;;18.88;17.20;;;18.70;99.90;;;;;;6037474;23;20082;-86
2021/07/07 00:50:23;;;;;;;17.52;15.95;;;18.60;99.90;;;;;;6036371;23;20666;-85
2021/07/07 00:52:48;;;;;;;17.55;15.75;;;18.60;99.90;;;;;;6036972;23;20981;-86
2021/07/07 00:55:16;;;;;;;18.15;16.17;;;18.60;99.90;;;;;;6035931;23;20004;-86
2021/07/07 00:57:44;;;;;;;17.10;15.43;;;18.50;99.90;;;;;;6037219;23;20058;-86
2021/07/07 01:00:16;;;;;;;17.88;16.27;;;18.50;99.90;;;;;;6037491;23;20019;-86
2021/07/07 01:02:44;;;;;;;17.65;16.00;;;18.40;99.90;;;;;;6037371;23;20468;-86
2021/07/07 01:05:12;;;;;;;17.63;16.02;;;18.40;99.90;;;;;;6036729;23;20411;-86
2021/07/07 01:07:38;;;;;;;18.13;16.17;;;18.40;99.90;;;;;;6011431;23;20477;-86
2021/07/07 01:10:08;;;;;;;19.13;17.17;;;18.50;99.90;;;;;;6037140;23;20007;-86
2021/07/07 01:12:34;;;;;;;;;;;18.50;99.90;;;;;;6037131;23;20008;-86
2021/07/07 01:15:11;;;;;;;19.30;17.48;;;18.50;99.90;;;;;;6036891;23;19910;-85
2021/07/07 01:17:37;;;;;;;18.48;16.83;;;18.60;99.90;;;;;;6011591;23;20003;-86
2021/07/07 01:20:06;;;;;;;19.38;17.58;;;18.70;99.90;;;;;;6036854;23;20441;-86
2021/07/07 01:22:32;;;;;;;20.48;18.42;;;18.60;99.90;;;;;;6036137;23;20432;-85
2021/07/07 01:24:58;;;;;;;19.63;17.77;;;18.60;99.90;;;;;;6036409;23;20775;-85
2021/07/07 01:27:26;;;;;;;20.88;18.70;;;18.60;99.90;;;;;;6037213;23;20420;-86
2021/07/07 01:29:52;;;;;;;20.02;18.08;;;18.60;99.90;;;;;;6036758;23;20011;-86
2021/07/07 01:32:18;;;;;;;18.48;16.83;;;18.60;99.90;;;;;;6037674;23;20000;-86
2021/07/07 01:34:44;;;;;;;17.75;16.15;;;18.50;99.90;;;;;;6036321;23;20030;-86
2021/07/07 01:37:10;;;;;;;16.73;15.27;;;18.50;99.90;;;;;;6010791;23;20007;-87
2021/07/07 01:39:36;;;;;;;16.63;15.13;;;18.50;99.90;;;;;;6036786;23;20022;-86
2021/07/07 01:42:03;;;;;;;18.13;16.50;;;18.40;99.90;;;;;;6036614;23;20420;-86
2021/07/07 01:44:28;;;;;;;17.17;15.57;;;18.40;99.90;;;;;;6037089;23;20025;-86
2021/07/07 01:46:54;;;;;;;17.73;16.08;;;18.40;99.90;;;;;;6037154;23;20003;-86
2021/07/07 01:49:20;;;;;;;17.83;16.15;;;18.40;99.90;;;;;;6036044;23;20532;-86
2021/07/07 01:51:46;;;;;;;21.13;17.13;;;18.40;99.90;;;;;;6037004;23;20079;-86
2021/07/07 01:54:11;;;;;;;18.02;16.17;;;18.30;99.90;;;;;;6036432;23;20400;-86
2021/07/07 01:56:37;;;;;;;17.75;16.15;;;18.30;99.90;;;;;;6036887;23;20034;-86
2021/07/07 01:59:03;;;;;;;18.52;16.77;;;18.30;99.90;;;;;;6037023;23;20340;-85
2021/07/07 02:01:28;;;;;;;19.13;17.45;;;18.30;99.90;;;;;;6036622;23;20443;-86
2021/07/07 02:03:54;;;;;;;18.67;16.90;;;18.20;99.90;;;;;;6036723;23;20011;-86
2021/07/07 02:06:20;;;;;;;18.90;17.15;;;18.20;99.90;;;;;;6035982;23;20033;-85
2021/07/07 02:08:46;;;;;;;18.48;16.80;;;18.20;99.90;;;;;;6036094;23;20445;-86
2021/07/07 02:11:12;;;;;;;18.73;17.13;;;18.20;99.90;;;;;;6037069;23;20011;-85
2021/07/07 02:13:37;;;;;;;18.80;17.20;;;18.20;99.90;;;;;;6036734;23;20349;-86
2021/07/07 02:16:04;;;;;;;19.95;18.08;;;18.10;99.90;;;;;;6035995;23;20007;-86
2021/07/07 02:18:30;;;;;;;18.38;16.77;;;18.10;99.90;;;;;;6012550;23;20120;-87
2021/07/07 02:20:56;;;;;;;19.77;17.98;;;18.10;99.90;;;;;;6038256;23;20039;-86
2021/07/07 02:23:24;;;;;;;23.10;18.70;;;18.00;99.90;;;;;;6037285;23;20000;-86
2021/07/07 02:25:49;;;;;;;19.20;17.40;;;18.00;99.90;;;;;;6038624;23;20011;-86
2021/07/07 02:28:17;;;;;;;18.02;16.30;;;18.00;99.90;;;;;;6038375;23;20010;-87
2021/07/07 02:30:44;;;;;;;18.45;16.38;;;18.00;99.90;;;;;;6038685;23;20026;-86
2021/07/07 02:33:11;;;;;;;18.75;17.00;;;18.00;99.90;;;;;;6037099;23;20536;-86
2021/07/07 02:35:39;;;;;;;19.38;17.58;;;18.00;99.90;;;;;;6036871;23;20014;-86
2021/07/07 02:38:07;;;;;;;19.38;17.63;;;18.00;99.90;;;;;;6038346;23;20038;-86
2021/07/07 02:40:34;;;;;;;19.60;17.77;;;17.90;99.90;;;;;;6037847;23;20441;-86
2021/07/07 02:43:01;;;;;;;18.33;16.63;;;18.00;99.90;;;;;;6038728;23;20007;-85
2021/07/07 02:45:30;;;;;;;20.45;18.52;;;18.00;99.90;;;;;;6037372;23;20031;-87
2021/07/07 02:47:56;;;;;;;20.20;18.40;;;18.00;99.90;;;;;;6037823;23;20324;-86
2021/07/07 02:50:21;;;;;;;20.83;18.15;;;18.10;99.90;;;;;;6037557;23;20337;-86
2021/07/07 02:52:48;;;;;;;20.10;18.20;;;18.10;99.90;;;;;;6038688;23;20003;-86
2021/07/07 02:55:16;;;;;;;19.73;17.92;;;18.10;99.90;;;;;;6037849;23;20068;-86
2021/07/07 02:57:58;;;;;;;18.38;16.83;;;18.20;99.90;;;;;;6037549;23;20014;-85
2021/07/07 03:00:34;;;;;;;18.00;16.50;;;18.20;99.90;;;;;;6038116;23;20314;-86
2021/07/07 03:03:08;;;;;;;20.13;18.00;;;18.20;99.90;;;;;;6011778;23;20006;-87
2021/07/07 03:05:46;;;;;;;19.80;18.10;;;18.30;99.90;;;;;;6037538;23;20110;-86
2021/07/07 03:08:13;;;;;;;22.33;19.88;;;18.20;99.90;;;;;;6038008;23;20006;-87
2021/07/07 03:10:43;;;;;;;21.02;19.08;;;18.10;99.90;;;;;;6037505;23;20011;-87
2021/07/07 03:13:09;;;;;;;20.25;18.35;;;18.10;99.90;;;;;;6037955;23;20495;-86
2021/07/07 03:15:37;;;;;;;20.00;18.13;;;18.20;99.90;;;;;;6037375;23;20011;-86
2021/07/07 03:18:04;;;;;;;18.33;16.75;;;18.20;99.90;;;;;;6036934;23;20010;-86
2021/07/07 03:20:30;;;;;;;18.65;16.90;;;18.30;99.90;;;;;;6037334;23;20016;-85
2021/07/07 03:22:55;;;;;;;19.63;17.98;;;18.30;99.90;;;;;;6037953;23;20003;-86
2021/07/07 03:25:22;;;;;;;20.77;18.85;;;18.40;99.90;;;;;;6036723;23;20011;-86
2021/07/07 03:27:49;;;;;;;20.42;18.27;;;18.50;99.90;;;;;;6012704;23;20035;-86
2021/07/07 03:30:16;;;;;;;20.17;17.98;;;18.60;99.90;;;;;;6037867;23;20086;-86
2021/07/07 03:32:42;;;;;;;22.23;20.15;;;18.70;99.90;;;;;;6038667;23;20003;-86
2021/07/07 03:35:09;;;;;;;21.23;19.23;;;18.70;99.90;;;;;;6036881;23;20012;-86
2021/07/07 03:37:35;;;;;;;20.60;18.55;;;18.80;99.90;;;;;;6012207;23;20015;-86
2021/07/07 03:40:01;;;;;;;20.10;18.40;;;18.80;99.90;;;;;;6037679;23;20018;-86
2021/07/07 03:42:26;;;;;;;19.88;17.95;;;18.90;99.90;;;;;;6036758;23;20040;-86
2021/07/07 03:44:52;;;;;;;18.92;17.27;;;19.00;99.90;;;;;;6037683;23;20003;-86
2021/07/07 03:47:18;;;;;;;19.20;17.42;;;19.10;99.90;;;;;;6037365;23;19999;-86
2021/07/07 03:49:43;;;;;;;19.77;17.88;;;19.20;99.90;;;;;;6038764;23;20011;-86
2021/07/07 03:52:09;;;;;;;19.30;17.52;;;19.30;99.90;;;;;;6037637;23;20420;-86
2021/07/07 03:54:35;;;;;;;20.90;18.80;;;19.40;99.90;;;;;;6036779;23;20090;-86
2021/07/07 03:57:02;;;;;;;21.70;18.75;;;19.60;99.90;;;;;;6037684;23;20310;-86
2021/07/07 03:59:27;;;;;;;18.92;17.13;;;19.90;99.90;;;;;;6037550;23;20011;-86
2021/07/07 04:01:53;;;;;;;20.60;18.80;;;20.20;99.90;;;;;;6037609;23;20067;-86
2021/07/07 04:04:18;;;;;;;19.25;17.52;;;20.70;99.90;;;;;;6037625;23;20039;-87
2021/07/07 04:06:47;;;;;;;19.58;17.73;;;21.40;99.90;;;;;;6036678;23;20034;-87
2021/07/07 04:09:13;;;;;;;18.52;16.55;;;22.10;99.90;;;;;;6037616;23;20014;-87
2021/07/07 04:11:41;;;;;;;18.45;16.75;;;22.70;99.90;;;;;;6012693;23;20014;-86
2021/07/07 04:14:08;;;;;;;18.85;17.08;;;23.40;99.90;;;;;;6037059;23;20050;-87
2021/07/07 04:16:34;;;;;;;18.95;17.15;;;23.80;99.90;;;;;;6036496;23;20016;-86
2021/07/07 04:18:59;;;;;;;18.65;16.85;;;24.30;99.90;;;;;;6037073;23;20421;-87
2021/07/07 04:21:26;;;;;;;17.25;15.52;;;24.70;99.90;;;;;;6037385;23;20031;-87
2021/07/07 04:23:52;;;;;;;16.67;15.07;;;25.00;99.90;;;;;;6036769;23;20007;-87
2021/07/07 04:26:17;;;;;;;17.45;15.85;;;25.10;99.90;;;;;;6011877;23;20012;-86
2021/07/07 04:28:43;;;;;;;16.40;14.80;;;25.30;99.90;;;;;;6037853;23;20432;-86
2021/07/07 04:31:09;;;;;;;15.88;14.45;;;25.60;99.90;;;;;;6037462;23;20481;-88
2021/07/07 04:33:34;;;;;;;16.77;14.98;;;25.70;99.90;;;;;;6011509;23;20010;-87
2021/07/07 04:36:00;;;;;;;16.40;14.82;;;25.70;99.90;;;;;;6036472;23;20031;-88
2021/07/07 04:38:25;;;;;;;15.93;14.52;;;25.80;99.90;;;;;;6036961;23;20021;-87
2021/07/07 04:40:51;;;;;;;15.90;14.40;;;25.90;99.90;;;;;;6036785;23;20022;-87
2021/07/07 04:43:17;;;;;;;15.15;13.77;;;26.10;99.90;;;;;;6011563;23;20014;-87
2021/07/07 04:45:45;;;;;;;15.60;14.10;;;26.20;99.90;;;;;;6036731;23;20391;-87
2021/07/07 04:48:10;;;;;;;14.50;13.02;;;26.30;99.90;;;;;;6037075;23;20003;-87
2021/07/07 04:50:36;;;;;;;15.70;14.02;;;26.40;99.90;;;;;;6036815;23;20003;-87
2021/07/07 04:53:02;;;;;;;15.10;13.77;;;26.50;99.90;;;;;;6011790;23;20360;-87
2021/07/07 04:55:28;;;;;;;14.60;13.15;;;26.80;99.90;;;;;;6036836;23;20070;-88
2021/07/07 04:57:54;;;;;;;15.27;13.80;;;26.80;99.90;;;;;;6037047;23;19999;-87
2021/07/07 05:00:22;;;;;;;14.35;13.05;;;26.30;99.90;;;;;;6011062;23;20087;-86
2021/07/07 05:02:49;;;;;;;14.93;13.60;;;25.80;99.90;;;;;;6036743;23;20027;-87
2021/07/07 05:05:17;;;;;;;13.98;12.77;;;25.40;99.90;;;;;;6036884;23;20014;-86
2021/07/07 05:07:44;;;;;;;17.17;13.77;;;25.10;99.90;;;;;;6036056;23;20027;-86
2021/07/07 05:10:11;;;;;;;13.35;12.05;;;24.80;99.90;;;;;;6036883;23;20029;-88
2021/07/07 05:12:38;;;;;;;13.80;12.35;;;24.60;99.90;;;;;;6038106;23;20006;-89
2021/07/07 05:15:08;;;;;;;12.85;11.75;;;24.40;99.90;;;;;;6036139;23;20436;-87
2021/07/07 05:17:34;;;;;;;12.93;11.63;;;24.30;99.90;;;;;;6036761;23;20007;-88
2021/07/07 05:20:00;;;;;;;14.68;12.57;;;24.20;99.90;;;;;;6036659;23;20011;-89
2021/07/07 05:22:27;;;;;;;12.95;11.75;;;24.20;99.90;;;;;;6036186;23;20003;-88
2021/07/07 05:24:53;;;;;;;13.48;11.93;;;24.20;99.90;;;;;;6037311;23;20007;-88
2021/07/07 05:27:19;;;;;;;13.13;11.77;;;24.20;99.90;;;;;;6036552;23;20431;-90
2021/07/07 05:29:44;;;;;;;14.07;12.18;;;24.30;99.90;;;;;;6037049;23;20008;-89
2021/07/07 05:32:11;;;;;;;12.98;11.77;;;24.30;99.90;;;;;;6036307;23;20110;-88
2021/07/07 05:34:39;;;;;;;12.25;10.90;;;24.30;99.90;;;;;;6037234;23;20007;-88
2021/07/07 05:37:05;;;;;;;16.08;12.05;;;24.40;99.90;;;;;;6036211;23;20323;-88
2021/07/07 05:39:30;;;;;;;13.30;11.50;;;24.50;99.90;;;;;;6036143;23;20029;-89
2021/07/07 05:41:57;;;;;;;12.23;11.02;;;24.60;99.90;;;;;;6037507;23;20008;-88
2021/07/07 05:44:24;;;;;;;12.13;11.02;;;24.70;99.90;;;;;;6036801;23;20003;-88
2021/07/07 05:46:50;;;;;;;12.02;10.80;;;24.70;99.90;;;;;;6037336;23;20003;-87
2021/07/07 05:49:15;;;;;;;12.57;11.35;;;24.80;99.90;;;;;;6037020;23;20365;-87
2021/07/07 05:51:41;;;;;;;13.55;11.35;;;24.90;99.90;;;;;;6038506;23;20440;-89
2021/07/07 05:54:07;;;;;;;12.13;10.77;;;25.00;99.90;;;;;;6038887;23;20010;-89
2021/07/07 05:56:33;;;;;;;11.88;10.80;;;25.10;99.90;;;;;;6039147;23;20011;-89
2021/07/07 05:58:58;;;;;;;11.25;10.25;;;25.20;99.90;;;;;;6038911;23;20051;-88
2021/07/07 06:01:25;;;;;;;11.98;10.88;;;25.30;99.90;;;;;;6038676;23;20011;-89
2021/07/07 06:03:50;;;;;;;14.85;10.45;;;25.30;99.90;;;;;;6039259;23;20043;-89
2021/07/07 06:06:16;;;;;;;12.57;11.07;;;25.50;99.90;;;;;;6038744;23;20083;-89
2021/07/07 06:08:42;;;;;;;12.05;10.95;;;25.50;99.90;;;;;;6012949;23;20006;-88
2021/07/07 06:11:07;;;;;;;10.80;9.68;;;25.60;99.90;;;;;;6038488;23;20004;-88
2021/07/07 06:13:33;;;;;;;10.80;9.90;;;25.70;99.90;;;;;;6039179;23;20000;-88
2021/07/07 06:15:59;;;;;;;10.48;9.52;;;25.80;99.90;;;;;;6038554;23;20030;-88
2021/07/07 06:18:24;;;;;;;9.52;8.70;;;25.90;99.90;;;;;;6039002;23;20004;-88
2021/07/07 06:20:50;;;;;;;10.38;9.30;;;26.00;99.90;;;;;;6038867;23;20011;-88
2021/07/07 06:23:16;;;;;;;10.13;9.07;;;26.00;99.90;;;;;;6038617;23;20066;-88
2021/07/07 06:25:41;;;;;;;10.75;9.68;;;26.20;99.90;;;;;;6037767;23;20337;-88
2021/07/07 06:28:07;;;;;;;11.25;8.93;;;26.20;99.90;;;;;;6038102;23;20011;-88
2021/07/07 06:30:33;;;;;;;12.55;8.82;;;26.30;99.90;;;;;;6013435;23;20007;-87
2021/07/07 06:33:01;;;;;;;10.18;9.10;;;26.50;99.90;;;;;;6038464;23;20082;-87
2021/07/07 06:35:30;;;;;;;9.98;9.18;;;26.60;99.90;;;;;;6038443;23;20403;-86
2021/07/07 06:37:56;;;;;;;9.57;8.68;;;26.70;99.90;;;;;;6037891;23;20019;-87
2021/07/07 06:40:22;;;;;;;11.20;8.38;;;26.70;99.90;;;;;;6038049;23;20016;-90
2021/07/07 06:42:49;;;;;;;9.85;8.90;;;26.80;99.90;;;;;;6039035;23;20000;-89
2021/07/07 06:45:16;;;;;;;10.13;9.13;;;26.90;99.90;;;;;;6036988;23;20007;-89
2021/07/07 06:47:41;;;;;;;9.27;8.43;;;27.10;99.90;;;;;;6037272;23;20045;-88
2021/07/07 06:50:09;;;;;;;9.10;8.30;;;27.10;99.90;;;;;;6037812;23;20340;-89
2021/07/07 06:52:35;;;;;;;9.40;8.50;;;27.20;99.90;;;;;;6038704;23;20091;-87
2021/07/07 06:55:01;;;;;;;9.65;8.80;;;27.20;99.90;;;;;;6037168;23;20424;-88
2021/07/07 06:57:27;;;;;;;9.55;8.57;;;27.30;99.90;;;;;;6037353;23;20003;-89
2021/07/07 06:59:52;;;;;;;9.05;8.27;;;27.40;99.90;;;;;;6037288;23;20090;-87
2021/07/07 07:02:18;;;;;;;10.05;9.05;;;27.30;99.90;;;;;;6037144;23;20086;-88
2021/07/07 07:04:44;;;;;;;9.93;8.93;;;27.30;99.90;;;;;;6038334;23;20344;-88
2021/07/07 07:07:09;;;;;;;8.90;8.13;;;27.40;99.90;;;;;;6037259;23;19999;-89
2021/07/07 07:09:35;;;;;;;9.38;8.52;;;27.40;99.90;;;;;;6036178;23;20411;-86
2021/07/07 07:12:01;;;;;;;12.80;9.35;;;27.50;99.90;;;;;;6035516;23;20086;-88
2021/07/07 07:14:27;;;;;;;9.60;8.70;;;27.60;99.90;;;;;;6034946;23;20091;-88
2021/07/07 07:16:53;;;;;;;9.20;8.40;;;27.70;99.90;;;;;;6033816;23;20007;-89
2021/07/07 07:19:19;;;;;;;9.85;9.02;;;27.70;99.90;;;;;;6036735;23;20015;-89
2021/07/07 07:21:44;;;;;;;8.90;8.00;;;27.80;99.90;;;;;;6036961;23;20007;-88
2021/07/07 07:24:10;;;;;;;8.68;7.85;;;27.90;99.90;;;;;;6036108;23;19999;-87
2021/07/07 07:26:36;;;;;;;9.10;8.30;;;28.00;99.90;;;;;;6037553;23;20309;-88
2021/07/07 07:29:03;;;;;;;9.02;8.15;;;28.00;99.90;;;;;;6036083;23;20079;-88
2021/07/07 07:31:29;;;;;;;8.75;7.95;;;28.00;99.90;;;;;;6036874;23;20452;-88
2021/07/07 07:33:55;;;;;;;9.32;8.43;;;28.00;99.90;;;;;;6011092;23;20003;-89
2021/07/07 07:36:21;;;;;;;10.38;8.15;;;28.00;99.90;;;;;;6037389;23;20011;-89
2021/07/07 07:38:50;;;;;;;9.63;8.30;;;28.10;99.90;;;;;;6037795;23;20015;-87
2021/07/07 07:41:16;;;;;;;9.27;8.50;;;28.10;99.80;;;;;;6012712;23;20428;-87
2021/07/07 07:43:43;;;;;;;8.73;7.93;;;28.10;99.90;;;;;;6038148;23;19995;-87
2021/07/07 07:46:08;;;;;;;8.40;7.70;;;28.20;99.90;;;;;;6036799;23;20014;-88
2021/07/07 07:48:34;;;;;;;10.15;7.90;;;28.30;99.80;;;;;;6037300;23;20003;-90
2021/07/07 07:51:01;;;;;;;8.77;7.95;;;28.30;99.80;;;;;;6036907;23;20004;-88
2021/07/07 07:53:27;;;;;;;8.43;7.55;;;28.30;99.20;;;;;;6036375;23;20018;-89
2021/07/07 07:55:54;;;;;;;7.88;7.07;;;28.30;98.50;;;;;;6036315;23;20011;-87
2021/07/07 07:58:19;;;;;;;8.02;7.20;;;28.30;97.90;;;;;;6037833;23;20010;-88
2021/07/07 08:00:49;;;;;;;11.20;7.38;;;28.40;98.10;;;;;;6035074;23;20023;-90
2021/07/07 08:03:15;;;;;;;;;;;28.40;97.70;;;;;;6037831;23;20023;-89
2021/07/07 08:05:42;;;;;;;7.82;7.13;;;28.50;98.90;;;;;;6011997;23;19941;-89
2021/07/07 08:08:09;;;;;;;9.20;6.97;;;28.60;97.70;;;;;;6037360;23;20031;-88
2021/07/07 08:10:36;;;;;;;8.55;7.57;;;28.60;98.30;;;;;;6035493;23;20003;-89
2021/07/07 08:13:02;;;;;;;9.55;7.75;;;28.70;97.10;;;;;;6036999;23;20043;-89
2021/07/07 08:15:28;;;;;;;8.00;7.20;;;28.70;98.00;;;;;;6037577;23;20019;-89
2021/07/07 08:17:56;;;;;;;8.13;7.32;;;28.80;97.00;;;;;;6035014;23;20086;-88
2021/07/07 08:20:22;;;;;;;8.88;8.00;;;28.80;97.80;;;;;;6036475;23;20011;-88
2021/07/07 08:22:48;;;;;;;11.80;8.20;;;28.90;97.30;;;;;;6011587;23;20007;-87
2021/07/07 08:25:14;;;;;;;8.80;8.00;;;29.00;98.70;;;;;;6031670;23;20348;-90
2021/07/07 08:27:40;;;;;;;8.48;7.68;;;29.00;96.50;;;;;;6035477;23;20496;-89
2021/07/07 08:30:09;;;;;;;8.73;7.85;;;29.00;97.00;;;;;;6010571;23;20344;-87
2021/07/07 08:32:35;;;;;;;8.52;7.63;;;29.10;96.60;;;;;;6035097;23;20329;-88
2021/07/07 08:35:01;;;;;;;9.50;7.68;;;29.10;97.90;;;;;;6035105;23;20011;-87
2021/07/07 08:37:27;;;;;;;8.18;7.47;;;29.20;97.40;;;;;;6035414;23;20003;-87
2021/07/07 08:39:53;;;;;;;8.55;7.82;;;29.20;95.50;;;;;;6033329;23;20029;-89
2021/07/07 08:42:19;;;;;;;8.45;7.03;;;29.30;95.80;;;;;;6034595;23;20003;-89
2021/07/07 08:44:45;;;;;;;8.85;7.18;;;29.30;94.60;;;;;;6036077;23;20003;-88
2021/07/07 08:47:11;;;;;;;8.18;7.10;;;29.30;93.40;;;;;;6033880;23;20007;-89
2021/07/07 08:49:37;;;;;;;8.15;7.35;;;29.30;94.60;;;;;;6035069;23;20003;-88
2021/07/07 08:52:04;;;;;;;8.88;7.55;;;29.40;95.50;;;;;;6010130;23;20060;-89
2021/07/07 08:54:31;;;;;;;9.50;7.60;;;29.50;94.80;;;;;;6035033;23;20054;-89
2021/07/07 08:57:09;;;;;;;7.63;6.95;;;29.60;94.30;;;;;;6035997;23;20007;-90
2021/07/07 08:59:36;;;;;;;8.75;7.40;;;29.60;93.50;;;;;;6035986;23;20019;-90
2021/07/07 09:02:11;;;;;;;7.68;7.07;;;29.60;93.50;;;;;;6034864;23;20003;-88
2021/07/07 09:04:44;;;;;;;7.80;7.05;;;29.70;94.50;;;;;;6035253;23;20087;-88
2021/07/07 09:07:21;;;;;;;7.97;6.90;;;29.90;94.20;;;;;;6010340;23;20007;-88
2021/07/07 09:09:49;;;;;;;7.43;6.72;;;29.80;93.70;;;;;;6035136;23;20006;-87
2021/07/07 09:12:18;;;;;;;7.75;6.70;;;29.90;92.60;;;;;;6009972;23;20455;-90
2021/07/07 09:14:45;;;;;;;7.88;7.07;;;30.00;93.50;;;;;;6009828;23;19999;-89
2021/07/07 09:17:17;;;;;;;7.63;6.82;;;30.00;92.40;;;;;;6035973;23;20014;-88
2021/07/07 09:19:44;;;;;;;8.90;7.30;;;30.00;93.70;;;;;;6034607;23;20027;-88
2021/07/07 09:22:12;;;;;;;8.35;7.45;;;30.10;92.30;;;;;;6033312;23;20019;-88
2021/07/07 09:24:42;;;;;;;7.63;6.97;;;30.20;93.10;;;;;;6036015;23;20523;-89
2021/07/07 09:27:18;;;;;;;8.32;7.10;;;30.20;90.40;;;;;;6035839;23;20893;-87
2021/07/07 09:29:51;;;;;;;7.95;7.15;;;30.20;91.50;;;;;;6038748;23;20180;-87
2021/07/07 09:32:20;;;;;;;7.78;7.00;;;30.10;91.20;;;;;;6013236;23;20094;-89
2021/07/07 09:34:51;;;;;;;;;;;29.90;92.00;;;;;;6037519;23;20019;-90
2021/07/07 09:37:39;;;;;;;8.45;7.22;;;30.00;90.90;;;;;;6037731;23;19910;-89
2021/07/07 09:40:09;;;;;;;8.52;6.55;;;30.10;90.80;;;;;;6039155;23;20447;-89
2021/07/07 09:42:35;;;;;;;;;;;30.00;90.40;;;;;;6039276;23;20031;-88
2021/07/07 09:45:04;;;;;;;7.70;6.90;;;30.10;89.20;;;;;;6037524;23;19910;-88
2021/07/07 09:47:30;;;;;;;7.25;6.55;;;30.10;90.00;;;;;;6039403;23;20074;-87
2021/07/07 09:49:57;;;;;;;8.23;6.57;;;30.20;90.40;;;;;;6038781;23;20007;-88
2021/07/07 09:52:26;;;;;;;6.38;5.82;;;30.10;89.40;;;;;;6038093;23;20003;-90
2021/07/07 09:54:52;;;;;;;7.03;6.38;;;30.00;90.20;;;;;;6038041;23;20010;-90
2021/07/07 09:57:19;;;;;;;6.85;6.05;;;30.10;90.70;;;;;;6013567;23;20003;-89
2021/07/07 09:59:45;;;;;;;7.75;6.65;;;30.20;89.70;;;;;;6038092;23;20011;-88
2021/07/07 10:02:11;;;;;;;8.13;6.82;;;30.20;87.80;;;;;;6012159;23;20011;-88
2021/07/07 10:04:41;;;;;;;8.30;6.90;;;30.10;87.50;;;;;;6038118;23;20011;-87
2021/07/07 10:07:08;;;;;;;7.00;6.30;;;30.10;89.50;;;;;;6038840;23;20007;-88
2021/07/07 10:09:37;;;;;;;6.90;6.18;;;30.00;87.90;;;;;;6037765;23;20060;-89
2021/07/07 10:12:04;;;;;;;7.15;6.43;;;30.00;89.20;;;;;;6038318;23;20011;-88
2021/07/07 10:14:30;;;;;;;7.20;6.07;;;30.10;88.90;;;;;;6038223;23;20010;-89
2021/07/07 10:16:56;;;;;;;7.50;6.80;;;30.30;88.80;;;;;;6038744;23;20018;-89
2021/07/07 10:19:22;;;;;;;7.50;5.93;;;30.40;90.00;;;;;;6037990;23;20354;-90
2021/07/07 10:21:49;;;;;;;6.60;5.70;;;30.50;86.50;;;;;;6013067;23;20007;-87
2021/07/07 10:24:17;;;;;;;7.10;6.47;;;30.50;87.00;;;;;;6038217;23;20090;-89
2021/07/07 10:26:44;;;;;;;8.32;5.68;;;30.50;86.80;;;;;;6038675;23;20003;-88
2021/07/07 10:29:12;;;;;;;6.88;6.28;;;30.50;87.30;;;;;;6013029;23;20015;-89
2021/07/07 10:31:52;;;;;;;6.55;5.93;;;30.30;88.10;;;;;;6038419;23;20476;-89
2021/07/07 10:34:20;;;;;;;6.95;6.28;;;30.10;85.80;;;;;;6037211;23;20003;-88
2021/07/07 10:36:47;;;;;;;6.80;6.20;;;30.10;85.40;;;;;;6035943;23;20335;-88
2021/07/07 10:39:17;;;;;;;6.75;6.10;;;30.10;88.30;;;;;;6036457;23;20031;-89
2021/07/07 10:41:49;;;;;;;6.10;5.60;;;30.10;88.70;;;;;;6036739;23;20011;-88
2021/07/07 10:44:24;;;;;;;6.50;5.90;;;30.20;85.40;;;;;;6036666;23;20438;-89
2021/07/07 10:46:58;;;;;;;7.72;6.90;;;30.40;89.40;;;;;;6035668;23;20326;-90
2021/07/07 10:49:26;;;;;;;7.88;6.30;;;30.30;85.40;;;;;;6037061;23;20484;-88
2021/07/07 10:51:57;;;;;;;9.32;6.53;;;30.40;87.70;;;;;;6037671;23;20374;-89
2021/07/07 10:54:30;;;;;;;6.72;6.13;;;30.30;88.70;;;;;;6034895;23;20007;-88
2021/07/07 10:56:57;;;;;;;7.03;6.00;;;30.30;85.60;;;;;;6012302;23;20007;-87
2021/07/07 10:59:42;;;;;;;7.30;6.07;;;30.20;85.90;;;;;;6036983;23;20011;-86
2021/07/07 11:02:22;;;;;;;6.38;5.88;;;30.20;85.30;;;;;;6036843;23;20673;-88
2021/07/07 11:05:02;;;;;;;6.78;6.18;;;30.20;86.70;;;;;;6011248;23;20010;-88
2021/07/07 11:07:31;;;;;;;8.85;5.78;;;30.00;84.10;;;;;;6011306;23;20339;-89
2021/07/07 11:10:17;;;;;;;6.90;6.30;;;30.10;86.00;;;;;;6036260;23;20332;-89
2021/07/07 11:12:43;;;;;;;6.75;6.15;;;30.20;85.30;;;;;;6035739;23;20767;-88
2021/07/07 11:15:13;;;;;;;6.47;5.85;;;30.10;86.40;;;;;;6011668;23;20011;-91
2021/07/07 11:17:45;;;;;;;7.55;6.20;;;30.20;86.00;;;;;;6037140;23;20471;-88
2021/07/07 11:20:15;;;;;;;16.42;6.40;;;30.40;88.10;;;;;;6035481;23;20086;-88
2021/07/07 11:23:02;;;;;;;13.00;6.60;;;30.60;85.10;;;;;;6011422;23;20003;-88
2021/07/07 11:25:31;;;;;;;7.72;5.63;;;30.60;82.70;;;;;;6037061;23;20011;-89
2021/07/07 11:27:59;;;;;;;6.55;5.88;;;30.70;82.50;;;;;;6035625;23;20007;-89
2021/07/07 11:30:25;;;;;;;6.32;5.75;;;30.80;86.10;;;;;;6037253;23;20044;-89
2021/07/07 11:33:06;;;;;;;9.48;6.13;;;31.00;85.40;;;;;;6010893;23;20850;-88
2021/07/07 11:35:40;;;;;;;6.50;5.78;;;31.00;82.50;;;;;;6035597;23;20007;-88
2021/07/07 11:38:11;;;;;;;7.45;5.88;;;30.80;82.00;;;;;;6036962;23;20019;-86
2021/07/07 11:40:39;;;;;;;6.25;5.75;;;30.70;81.80;;;;;;6011563;23;20019;-90
2021/07/07 11:43:04;;;;;;;8.27;6.10;;;30.70;81.70;;;;;;6036475;23;20003;-87
2021/07/07 11:45:42;;;;;;;8.63;6.05;;;30.60;83.60;;;;;;6034637;23;20102;-88
2021/07/07 11:48:13;;;;;;;7.53;6.10;;;30.80;83.00;;;;;;6036184;23;20081;-87
2021/07/07 11:50:46;;;;;;;5.55;5.10;;;30.70;81.20;;;;;;6036901;23;20011;-88
2021/07/07 11:53:13;;;;;;;7.15;6.05;;;30.80;82.10;;;;;;6035933;23;20055;-88
2021/07/07 11:55:59;;;;;;;6.07;5.45;;;30.80;81.00;;;;;;6036166;23;20377;-90
2021/07/07 11:58:32;;;;;;;10.98;5.47;;;30.70;82.80;;;;;;6037021;23;20007;-89
2021/07/07 12:01:13;;;;;;;8.23;5.82;;;30.60;81.90;;;;;;6034222;23;20086;-89
2021/07/07 12:03:40;;;;;;;7.63;5.90;;;30.60;83.20;;;;;;6011186;23;20103;-88
2021/07/07 12:06:08;;;;;;;10.00;6.45;;;30.60;81.50;;;;;;6035594;23;20078;-90
2021/07/07 12:08:39;;;;;;;8.90;6.27;;;30.70;83.10;;;;;;6035968;23;20775;-90
2021/07/07 12:11:14;;;;;;;6.72;6.22;;;30.80;83.20;;;;;;6036500;23;20231;-89
2021/07/07 12:13:45;;;;;;;6.30;5.80;;;31.10;82.60;;;;;;6035249;23;20006;-90
2021/07/07 12:16:41;;;;;;;7.10;6.40;;;31.20;80.40;;;;;;6035798;23;20011;-90
2021/07/07 12:19:11;;;;;;;8.30;6.57;;;31.20;81.60;;;;;;6012055;23;20043;-89
2021/07/07 12:21:42;;;;;;;6.97;6.38;;;31.10;80.20;;;;;;6034788;23;20007;-89
2021/07/07 12:24:18;;;;;;;6.82;6.22;;;31.00;80.70;;;;;;6036626;23;20033;-90
2021/07/07 12:26:47;;;;;;;7.18;6.35;;;31.10;81.30;;;;;;6035525;23;20428;-90
2021/07/07 12:29:24;;;;;;;6.55;6.05;;;31.20;81.40;;;;;;6036700;23;20024;-88
2021/07/07 12:31:52;;;;;;;6.20;5.70;;;31.00;80.10;;;;;;6016158;23;20090;-91
2021/07/07 12:34:24;;;;;;;6.47;5.97;;;31.10;81.20;;;;;;6040438;23;20071;-89
2021/07/07 12:36:52;;;;;;;8.05;5.75;;;31.10;82.40;;;;;;6016280;23;20015;-88
2021/07/07 12:39:23;;;;;;;6.30;5.75;;;31.30;81.30;;;;;;6014352;23;20026;-89
2021/07/07 12:42:17;;;;;;;6.32;5.72;;;31.30;80.10;;;;;;6015807;23;20010;-90